sensor_id;sensor_type;location;lat;lon;timestamp;P1;P2;P0
38451;PMS5003;24231;52.514;13.438;2022-12-07T00:03:06;9;9;
38451;PMS5003;24231;52.514;13.438;2022-12-07T00:05:34;13;11;
38451;PMS5003;24231;52.514;13.438;2022-12-07T00:08:01;11;10;
38451;PMS5003;24231;52.514;13.438;2022-12-07T00:10:28;11;9;
38451;PMS5003;24231;52.514;13.438;2022-12-07T00:12:55;14;12;
38451;PMS5003;24231;52.514;13.438;2022-12-07T00:15:23;14;13;
38451;PMS5003;24231;52.514;13.438;2022-12-07T00:17:51;8;8;
38451;PMS5003;24231;52.514;13.438;2022-12-07T00:20:18;14;9;
38451;PMS5003;24231;52.514;13.438;2022-12-07T00:22:45;9;9;
38451;PMS5003;24231;52.514;13.438;2022-12-07T00:25:13;11;9;
38451;PMS5003;24231;52.514;13.438;2022-12-07T00:27:40;7;6;
38451;PMS5003;24231;52.514;13.438;2022-12-07T00:30:07;13;9;
38451;PMS5003;24231;52.514;13.438;2022-12-07T00:32:35;16;12;
38451;PMS5003;24231;52.514;13.438;2022-12-07T00:35:03;11;9;
38451;PMS5003;24231;52.514;13.438;2022-12-07T00:37:30;12;11;
38451;PMS5003;24231;52.514;13.438;2022-12-07T00:39:57;9;8;
38451;PMS5003;24231;52.514;13.438;2022-12-07T00:42:24;16;11;
38451;PMS5003;24231;52.514;13.438;2022-12-07T00:44:52;13;12;
38451;PMS5003;24231;52.514;13.438;2022-12-07T00:47:18;12;7;
38451;PMS5003;24231;52.514;13.438;2022-12-07T00:49:46;11;8;
38451;PMS5003;24231;52.514;13.438;2022-12-07T00:52:13;13;8;
38451;PMS5003;24231;52.514;13.438;2022-12-07T00:54:40;14;12;
38451;PMS5003;24231;52.514;13.438;2022-12-07T00:57:08;10;10;
38451;PMS5003;24231;52.514;13.438;2022-12-07T00:59:35;10;8;
38451;PMS5003;24231;52.514;13.438;2022-12-07T01:02:03;14;8;
38451;PMS5003;24231;52.514;13.438;2022-12-07T01:04:32;18;15;
38451;PMS5003;24231;52.514;13.438;2022-12-07T01:06:59;12;11;
38451;PMS5003;24231;52.514;13.438;2022-12-07T01:09:27;14;12;
38451;PMS5003;24231;52.514;13.438;2022-12-07T01:11:54;13;10;
38451;PMS5003;24231;52.514;13.438;2022-12-07T01:14:21;13;11;
38451;PMS5003;24231;52.514;13.438;2022-12-07T01:16:49;19;16;
38451;PMS5003;24231;52.514;13.438;2022-12-07T01:19:16;11;8;
38451;PMS5003;24231;52.514;13.438;2022-12-07T01:21:43;12;11;
38451;PMS5003;24231;52.514;13.438;2022-12-07T01:24:10;10;8;
38451;PMS5003;24231;52.514;13.438;2022-12-07T01:26:38;10;10;
38451;PMS5003;24231;52.514;13.438;2022-12-07T01:29:05;13;10;
38451;PMS5003;24231;52.514;13.438;2022-12-07T01:31:32;15;11;
38451;PMS5003;24231;52.514;13.438;2022-12-07T01:33:59;11;10;
38451;PMS5003;24231;52.514;13.438;2022-12-07T01:36:27;10;8;
38451;PMS5003;24231;52.514;13.438;2022-12-07T01:38:57;8;7;
38451;PMS5003;24231;52.514;13.438;2022-12-07T01:41:26;7;7;
38451;PMS5003;24231;52.514;13.438;2022-12-07T01:44:15;6;6;
38451;PMS5003;24231;52.514;13.438;2022-12-07T01:46:46;13;10;
38451;PMS5003;24231;52.514;13.438;2022-12-07T01:49:16;8;7;
38451;PMS5003;24231;52.514;13.438;2022-12-07T01:51:49;11;6;
38451;PMS5003;24231;52.514;13.438;2022-12-07T01:54:21;10;7;
38451;PMS5003;24231;52.514;13.438;2022-12-07T01:56:49;11;7;
38451;PMS5003;24231;52.514;13.438;2022-12-07T01:59:19;6;6;
38451;PMS5003;24231;52.514;13.438;2022-12-07T02:01:51;7;7;
38451;PMS5003;24231;52.514;13.438;2022-12-07T02:04:19;6;5;
38451;PMS5003;24231;52.514;13.438;2022-12-07T02:06:48;8;7;
38451;PMS5003;24231;52.514;13.438;2022-12-07T02:09:16;8;7;
38451;PMS5003;24231;52.514;13.438;2022-12-07T02:11:44;8;6;
38451;PMS5003;24231;52.514;13.438;2022-12-07T02:14:12;7;6;
38451;PMS5003;24231;52.514;13.438;2022-12-07T02:16:42;10;7;
38451;PMS5003;24231;52.514;13.438;2022-12-07T02:19:28;8;6;
38451;PMS5003;24231;52.514;13.438;2022-12-07T02:23:23;7;7;
38451;PMS5003;24231;52.514;13.438;2022-12-07T02:26:12;10;8;
38451;PMS5003;24231;52.514;13.438;2022-12-07T02:28:56;6;6;
38451;PMS5003;24231;52.514;13.438;2022-12-07T02:31:43;6;6;
38451;PMS5003;24231;52.514;13.438;2022-12-07T02:34:18;8;8;
38451;PMS5003;24231;52.514;13.438;2022-12-07T02:36:58;8;6;
38451;PMS5003;24231;52.514;13.438;2022-12-07T02:39:32;5;5;
38451;PMS5003;24231;52.514;13.438;2022-12-07T02:42:07;8;8;
38451;PMS5003;24231;52.514;13.438;2022-12-07T02:44:40;11;8;
38451;PMS5003;24231;52.514;13.438;2022-12-07T02:47:09;10;6;
38451;PMS5003;24231;52.514;13.438;2022-12-07T02:49:41;8;6;
38451;PMS5003;24231;52.514;13.438;2022-12-07T02:52:09;10;10;
38451;PMS5003;24231;52.514;13.438;2022-12-07T02:54:36;11;10;
38451;PMS5003;24231;52.514;13.438;2022-12-07T02:57:07;8;7;
38451;PMS5003;24231;52.514;13.438;2022-12-07T02:59:48;10;7;
38451;PMS5003;24231;52.514;13.438;2022-12-07T03:02:28;15;10;
38451;PMS5003;24231;52.514;13.438;2022-12-07T03:05:11;11;6;
38451;PMS5003;24231;52.514;13.438;2022-12-07T03:07:46;11;8;
38451;PMS5003;24231;52.514;13.438;2022-12-07T03:10:22;6;5;
38451;PMS5003;24231;52.514;13.438;2022-12-07T03:13:00;7;7;
38451;PMS5003;24231;52.514;13.438;2022-12-07T03:15:32;7;7;
38451;PMS5003;24231;52.514;13.438;2022-12-07T03:18:06;6;5;
38451;PMS5003;24231;52.514;13.438;2022-12-07T03:20:35;13;8;
38451;PMS5003;24231;52.514;13.438;2022-12-07T03:23:06;10;8;
38451;PMS5003;24231;52.514;13.438;2022-12-07T03:25:37;15;12;
38451;PMS5003;24231;52.514;13.438;2022-12-07T03:28:08;13;12;
38451;PMS5003;24231;52.514;13.438;2022-12-07T03:30:39;11;10;
38451;PMS5003;24231;52.514;13.438;2022-12-07T03:33:13;11;8;
38451;PMS5003;24231;52.514;13.438;2022-12-07T03:35:47;12;10;
38451;PMS5003;24231;52.514;13.438;2022-12-07T03:38:22;16;13;
38451;PMS5003;24231;52.514;13.438;2022-12-07T03:40:54;13;13;
38451;PMS5003;24231;52.514;13.438;2022-12-07T03:43:27;6;5;
38451;PMS5003;24231;52.514;13.438;2022-12-07T03:45:58;12;12;
38451;PMS5003;24231;52.514;13.438;2022-12-07T03:48:34;12;10;
38451;PMS5003;24231;52.514;13.438;2022-12-07T03:51:07;8;8;
38451;PMS5003;24231;52.514;13.438;2022-12-07T03:53:41;14;10;
38451;PMS5003;24231;52.514;13.438;2022-12-07T03:56:13;8;6;
38451;PMS5003;24231;52.514;13.438;2022-12-07T03:58:41;12;11;
38451;PMS5003;24231;52.514;13.438;2022-12-07T04:01:09;13;12;
38451;PMS5003;24231;52.514;13.438;2022-12-07T04:03:37;12;8;
38451;PMS5003;24231;52.514;13.438;2022-12-07T04:06:04;12;8;
38451;PMS5003;24231;52.514;13.438;2022-12-07T04:08:32;13;13;
38451;PMS5003;24231;52.514;13.438;2022-12-07T04:10:59;15;15;
38451;PMS5003;24231;52.514;13.438;2022-12-07T04:13:27;12;11;
38451;PMS5003;24231;52.514;13.438;2022-12-07T04:15:54;15;12;
38451;PMS5003;24231;52.514;13.438;2022-12-07T04:18:21;12;10;
38451;PMS5003;24231;52.514;13.438;2022-12-07T04:20:48;15;13;
38451;PMS5003;24231;52.514;13.438;2022-12-07T04:23:15;14;12;
38451;PMS5003;24231;52.514;13.438;2022-12-07T04:25:43;17;12;
38451;PMS5003;24231;52.514;13.438;2022-12-07T04:28:11;15;10;
38451;PMS5003;24231;52.514;13.438;2022-12-07T04:30:38;12;10;
38451;PMS5003;24231;52.514;13.438;2022-12-07T04:33:05;16;10;
38451;PMS5003;24231;52.514;13.438;2022-12-07T04:35:32;14;10;
38451;PMS5003;24231;52.514;13.438;2022-12-07T04:37:59;21;19;
38451;PMS5003;24231;52.514;13.438;2022-12-07T04:40:27;18;16;
38451;PMS5003;24231;52.514;13.438;2022-12-07T04:42:54;15;14;
38451;PMS5003;24231;52.514;13.438;2022-12-07T04:45:22;22;15;
38451;PMS5003;24231;52.514;13.438;2022-12-07T04:47:49;19;14;
38451;PMS5003;24231;52.514;13.438;2022-12-07T04:50:16;16;15;
38451;PMS5003;24231;52.514;13.438;2022-12-07T04:52:43;33;28;
38451;PMS5003;24231;52.514;13.438;2022-12-07T04:55:11;17;16;
38451;PMS5003;24231;52.514;13.438;2022-12-07T04:57:38;23;15;
38451;PMS5003;24231;52.514;13.438;2022-12-07T05:00:07;17;15;
38451;PMS5003;24231;52.514;13.438;2022-12-07T05:02:35;15;14;
38451;PMS5003;24231;52.514;13.438;2022-12-07T05:05:03;17;15;
38451;PMS5003;24231;52.514;13.438;2022-12-07T05:07:30;16;13;
38451;PMS5003;24231;52.514;13.438;2022-12-07T05:09:58;24;21;
38451;PMS5003;24231;52.514;13.438;2022-12-07T05:12:25;26;17;
38451;PMS5003;24231;52.514;13.438;2022-12-07T05:14:53;23;23;
38451;PMS5003;24231;52.514;13.438;2022-12-07T05:17:20;20;16;
38451;PMS5003;24231;52.514;13.438;2022-12-07T05:19:49;25;17;
38451;PMS5003;24231;52.514;13.438;2022-12-07T05:22:40;22;19;
38451;PMS5003;24231;52.514;13.438;2022-12-07T05:25:41;15;13;
38451;PMS5003;24231;52.514;13.438;2022-12-07T05:28:09;20;16;
38451;PMS5003;24231;52.514;13.438;2022-12-07T05:30:36;29;23;
38451;PMS5003;24231;52.514;13.438;2022-12-07T05:33:04;17;14;
38451;PMS5003;24231;52.514;13.438;2022-12-07T05:35:32;20;20;
38451;PMS5003;24231;52.514;13.438;2022-12-07T05:37:58;21;18;
38451;PMS5003;24231;52.514;13.438;2022-12-07T05:40:26;25;20;
38451;PMS5003;24231;52.514;13.438;2022-12-07T05:42:53;20;16;
38451;PMS5003;24231;52.514;13.438;2022-12-07T05:45:21;30;23;
38451;PMS5003;24231;52.514;13.438;2022-12-07T05:47:48;24;21;
38451;PMS5003;24231;52.514;13.438;2022-12-07T05:50:15;23;20;
38451;PMS5003;24231;52.514;13.438;2022-12-07T05:52:42;27;24;
38451;PMS5003;24231;52.514;13.438;2022-12-07T05:55:09;33;31;
38451;PMS5003;24231;52.514;13.438;2022-12-07T05:57:36;23;22;
38451;PMS5003;24231;52.514;13.438;2022-12-07T06:00:03;32;25;
38451;PMS5003;24231;52.514;13.438;2022-12-07T06:02:32;26;23;
38451;PMS5003;24231;52.514;13.438;2022-12-07T06:04:59;29;23;
38451;PMS5003;24231;52.514;13.438;2022-12-07T06:07:26;30;24;
38451;PMS5003;24231;52.514;13.438;2022-12-07T06:09:53;18;18;
38451;PMS5003;24231;52.514;13.438;2022-12-07T06:12:20;23;22;
38451;PMS5003;24231;52.514;13.438;2022-12-07T06:14:47;28;25;
38451;PMS5003;24231;52.514;13.438;2022-12-07T06:17:15;26;25;
38451;PMS5003;24231;52.514;13.438;2022-12-07T06:19:43;27;22;
38451;PMS5003;24231;52.514;13.438;2022-12-07T06:22:10;32;26;
38451;PMS5003;24231;52.514;13.438;2022-12-07T06:24:38;26;24;
38451;PMS5003;24231;52.514;13.438;2022-12-07T06:27:06;32;25;
38451;PMS5003;24231;52.514;13.438;2022-12-07T06:29:33;25;23;
38451;PMS5003;24231;52.514;13.438;2022-12-07T06:32:01;31;27;
38451;PMS5003;24231;52.514;13.438;2022-12-07T06:34:28;39;33;
38451;PMS5003;24231;52.514;13.438;2022-12-07T06:36:56;35;29;
38451;PMS5003;24231;52.514;13.438;2022-12-07T06:39:25;32;27;
38451;PMS5003;24231;52.514;13.438;2022-12-07T06:41:55;29;24;
38451;PMS5003;24231;52.514;13.438;2022-12-07T06:44:23;19;17;
38451;PMS5003;24231;52.514;13.438;2022-12-07T06:46:50;24;18;
38451;PMS5003;24231;52.514;13.438;2022-12-07T06:49:18;24;22;
38451;PMS5003;24231;52.514;13.438;2022-12-07T06:51:46;26;21;
38451;PMS5003;24231;52.514;13.438;2022-12-07T06:54:14;28;25;
38451;PMS5003;24231;52.514;13.438;2022-12-07T06:56:42;30;25;
38451;PMS5003;24231;52.514;13.438;2022-12-07T06:59:09;26;23;
38451;PMS5003;24231;52.514;13.438;2022-12-07T07:01:36;24;17;
38451;PMS5003;24231;52.514;13.438;2022-12-07T07:04:04;26;21;
38451;PMS5003;24231;52.514;13.438;2022-12-07T07:06:31;31;27;
38451;PMS5003;24231;52.514;13.438;2022-12-07T07:08:59;29;22;
38451;PMS5003;24231;52.514;13.438;2022-12-07T07:11:26;17;14;
38451;PMS5003;24231;52.514;13.438;2022-12-07T07:13:53;27;22;
38451;PMS5003;24231;52.514;13.438;2022-12-07T07:16:20;30;27;
38451;PMS5003;24231;52.514;13.438;2022-12-07T07:18:47;30;25;
38451;PMS5003;24231;52.514;13.438;2022-12-07T07:21:14;24;16;
38451;PMS5003;24231;52.514;13.438;2022-12-07T07:23:41;24;18;
38451;PMS5003;24231;52.514;13.438;2022-12-07T07:26:08;33;25;
38451;PMS5003;24231;52.514;13.438;2022-12-07T07:28:36;29;25;
38451;PMS5003;24231;52.514;13.438;2022-12-07T07:31:04;29;24;
38451;PMS5003;24231;52.514;13.438;2022-12-07T07:33:31;26;21;
38451;PMS5003;24231;52.514;13.438;2022-12-07T07:35:58;31;23;
38451;PMS5003;24231;52.514;13.438;2022-12-07T07:38:25;25;21;
38451;PMS5003;24231;52.514;13.438;2022-12-07T07:40:52;16;15;
38451;PMS5003;24231;52.514;13.438;2022-12-07T07:43:19;26;20;
38451;PMS5003;24231;52.514;13.438;2022-12-07T07:45:47;26;18;
38451;PMS5003;24231;52.514;13.438;2022-12-07T07:48:14;20;16;
38451;PMS5003;24231;52.514;13.438;2022-12-07T07:50:41;20;18;
38451;PMS5003;24231;52.514;13.438;2022-12-07T07:53:08;25;20;
38451;PMS5003;24231;52.514;13.438;2022-12-07T07:55:36;19;17;
38451;PMS5003;24231;52.514;13.438;2022-12-07T07:58:03;19;14;
38451;PMS5003;24231;52.514;13.438;2022-12-07T08:00:30;20;15;
38451;PMS5003;24231;52.514;13.438;2022-12-07T08:02:57;14;12;
38451;PMS5003;24231;52.514;13.438;2022-12-07T08:05:24;13;10;
38451;PMS5003;24231;52.514;13.438;2022-12-07T08:07:51;14;12;
38451;PMS5003;24231;52.514;13.438;2022-12-07T08:10:19;23;19;
38451;PMS5003;24231;52.514;13.438;2022-12-07T08:12:46;14;12;
38451;PMS5003;24231;52.514;13.438;2022-12-07T08:15:13;12;12;
38451;PMS5003;24231;52.514;13.438;2022-12-07T08:17:41;21;10;
38451;PMS5003;24231;52.514;13.438;2022-12-07T08:20:08;10;8;
38451;PMS5003;24231;52.514;13.438;2022-12-07T08:22:35;10;9;
38451;PMS5003;24231;52.514;13.438;2022-12-07T08:25:02;12;8;
38451;PMS5003;24231;52.514;13.438;2022-12-07T08:27:30;13;13;
38451;PMS5003;24231;52.514;13.438;2022-12-07T08:29:57;17;15;
38451;PMS5003;24231;52.514;13.438;2022-12-07T08:32:25;16;14;
38451;PMS5003;24231;52.514;13.438;2022-12-07T08:34:52;10;9;
38451;PMS5003;24231;52.514;13.438;2022-12-07T08:37:19;12;9;
38451;PMS5003;24231;52.514;13.438;2022-12-07T08:39:47;13;10;
38451;PMS5003;24231;52.514;13.438;2022-12-07T08:42:14;13;11;
38451;PMS5003;24231;52.514;13.438;2022-12-07T08:44:42;8;7;
38451;PMS5003;24231;52.514;13.438;2022-12-07T08:47:09;12;9;
38451;PMS5003;24231;52.514;13.438;2022-12-07T08:49:38;13;9;
38451;PMS5003;24231;52.514;13.438;2022-12-07T08:52:07;8;8;
38451;PMS5003;24231;52.514;13.438;2022-12-07T08:54:36;6;6;
38451;PMS5003;24231;52.514;13.438;2022-12-07T08:57:05;4;4;
38451;PMS5003;24231;52.514;13.438;2022-12-07T08:59:34;5;5;
38451;PMS5003;24231;52.514;13.438;2022-12-07T09:02:02;4;4;
38451;PMS5003;24231;52.514;13.438;2022-12-07T09:04:29;4;4;
38451;PMS5003;24231;52.514;13.438;2022-12-07T09:06:57;4;4;
38451;PMS5003;24231;52.514;13.438;2022-12-07T09:09:25;4;4;
38451;PMS5003;24231;52.514;13.438;2022-12-07T09:11:53;4;3;
38451;PMS5003;24231;52.514;13.438;2022-12-07T09:14:20;2;2;
38451;PMS5003;24231;52.514;13.438;2022-12-07T09:16:47;5;4;
38451;PMS5003;24231;52.514;13.438;2022-12-07T09:19:14;2;2;
38451;PMS5003;24231;52.514;13.438;2022-12-07T09:21:42;6;3;
38451;PMS5003;24231;52.514;13.438;2022-12-07T09:24:09;3;3;
38451;PMS5003;24231;52.514;13.438;2022-12-07T09:26:37;3;3;
38451;PMS5003;24231;52.514;13.438;2022-12-07T09:29:05;2;2;
38451;PMS5003;24231;52.514;13.438;2022-12-07T09:31:32;2;2;
38451;PMS5003;24231;52.514;13.438;2022-12-07T09:34:02;5;3;
38451;PMS5003;24231;52.514;13.438;2022-12-07T09:36:30;2;2;
38451;PMS5003;24231;52.514;13.438;2022-12-07T09:38:57;4;3;
38451;PMS5003;24231;52.514;13.438;2022-12-07T09:41:25;5;3;
38451;PMS5003;24231;52.514;13.438;2022-12-07T09:43:57;3;3;
38451;PMS5003;24231;52.514;13.438;2022-12-07T09:46:31;4;4;
38451;PMS5003;24231;52.514;13.438;2022-12-07T09:49:02;2;2;
38451;PMS5003;24231;52.514;13.438;2022-12-07T09:51:30;4;3;
38451;PMS5003;24231;52.514;13.438;2022-12-07T09:53:58;4;4;
38451;PMS5003;24231;52.514;13.438;2022-12-07T09:56:28;4;4;
38451;PMS5003;24231;52.514;13.438;2022-12-07T09:58:58;3;3;
38451;PMS5003;24231;52.514;13.438;2022-12-07T10:01:28;4;3;
38451;PMS5003;24231;52.514;13.438;2022-12-07T10:03:59;2;2;
38451;PMS5003;24231;52.514;13.438;2022-12-07T10:06:38;3;2;
38451;PMS5003;24231;52.514;13.438;2022-12-07T10:09:09;3;3;
38451;PMS5003;24231;52.514;13.438;2022-12-07T10:11:57;5;4;
38451;PMS5003;24231;52.514;13.438;2022-12-07T10:14:27;3;3;
38451;PMS5003;24231;52.514;13.438;2022-12-07T10:16:55;3;3;
38451;PMS5003;24231;52.514;13.438;2022-12-07T10:19:24;4;3;
38451;PMS5003;24231;52.514;13.438;2022-12-07T10:22:02;5;5;
38451;PMS5003;24231;52.514;13.438;2022-12-07T10:24:31;4;3;
38451;PMS5003;24231;52.514;13.438;2022-12-07T10:26:58;5;4;
38451;PMS5003;24231;52.514;13.438;2022-12-07T10:29:28;5;3;
38451;PMS5003;24231;52.514;13.438;2022-12-07T10:31:57;4;4;
38451;PMS5003;24231;52.514;13.438;2022-12-07T10:34:27;5;4;
38451;PMS5003;24231;52.514;13.438;2022-12-07T10:37:11;3;2;
38451;PMS5003;24231;52.514;13.438;2022-12-07T10:39:43;3;3;
38451;PMS5003;24231;52.514;13.438;2022-12-07T10:42:16;15;11;
38451;PMS5003;24231;52.514;13.438;2022-12-07T10:44:45;4;4;
38451;PMS5003;24231;52.514;13.438;2022-12-07T10:47:18;3;3;
38451;PMS5003;24231;52.514;13.438;2022-12-07T10:50:00;6;5;
38451;PMS5003;24231;52.514;13.438;2022-12-07T10:52:38;8;5;
38451;PMS5003;24231;52.514;13.438;2022-12-07T10:55:19;4;4;
38451;PMS5003;24231;52.514;13.438;2022-12-07T10:57:56;5;4;
38451;PMS5003;24231;52.514;13.438;2022-12-07T11:00:43;5;4;
38451;PMS5003;24231;52.514;13.438;2022-12-07T11:03:22;4;4;
38451;PMS5003;24231;52.514;13.438;2022-12-07T11:06:12;4;3;
38451;PMS5003;24231;52.514;13.438;2022-12-07T11:08:53;7;5;
38451;PMS5003;24231;52.514;13.438;2022-12-07T11:11:31;8;5;
38451;PMS5003;24231;52.514;13.438;2022-12-07T11:14:04;5;4;
38451;PMS5003;24231;52.514;13.438;2022-12-07T11:16:47;7;6;
38451;PMS5003;24231;52.514;13.438;2022-12-07T11:19:24;10;5;
38451;PMS5003;24231;52.514;13.438;2022-12-07T11:22:01;6;5;
38451;PMS5003;24231;52.514;13.438;2022-12-07T11:24:39;7;5;
38451;PMS5003;24231;52.514;13.438;2022-12-07T11:27:16;14;10;
38451;PMS5003;24231;52.514;13.438;2022-12-07T11:29:53;11;8;
38451;PMS5003;24231;52.514;13.438;2022-12-07T11:32:34;6;6;
38451;PMS5003;24231;52.514;13.438;2022-12-07T11:35:13;6;6;
38451;PMS5003;24231;52.514;13.438;2022-12-07T11:37:49;6;4;
38451;PMS5003;24231;52.514;13.438;2022-12-07T11:40:24;8;7;
38451;PMS5003;24231;52.514;13.438;2022-12-07T11:42:57;11;9;
38451;PMS5003;24231;52.514;13.438;2022-12-07T11:45:28;44;38;
38451;PMS5003;24231;52.514;13.438;2022-12-07T11:47:59;10;9;
38451;PMS5003;24231;52.514;13.438;2022-12-07T11:50:31;9;8;
38451;PMS5003;24231;52.514;13.438;2022-12-07T11:53:03;7;7;
38451;PMS5003;24231;52.514;13.438;2022-12-07T11:55:41;5;5;
38451;PMS5003;24231;52.514;13.438;2022-12-07T11:58:17;13;7;
38451;PMS5003;24231;52.514;13.438;2022-12-07T12:00:49;7;5;
38451;PMS5003;24231;52.514;13.438;2022-12-07T12:03:23;5;5;
38451;PMS5003;24231;52.514;13.438;2022-12-07T12:05:57;10;4;
38451;PMS5003;24231;52.514;13.438;2022-12-07T12:08:26;13;6;
38451;PMS5003;24231;52.514;13.438;2022-12-07T12:11:00;8;4;
38451;PMS5003;24231;52.514;13.438;2022-12-07T12:13:56;7;7;
38451;PMS5003;24231;52.514;13.438;2022-12-07T12:16:43;5;4;
38451;PMS5003;24231;52.514;13.438;2022-12-07T12:19:27;9;9;
38451;PMS5003;24231;52.514;13.438;2022-12-07T12:22:03;4;4;
38451;PMS5003;24231;52.514;13.438;2022-12-07T12:24:37;3;3;
38451;PMS5003;24231;52.514;13.438;2022-12-07T12:27:06;9;9;
38451;PMS5003;24231;52.514;13.438;2022-12-07T12:29:37;5;5;
38451;PMS5003;24231;52.514;13.438;2022-12-07T12:32:08;5;5;
38451;PMS5003;24231;52.514;13.438;2022-12-07T12:34:57;5;5;
38451;PMS5003;24231;52.514;13.438;2022-12-07T12:37:43;7;7;
38451;PMS5003;24231;52.514;13.438;2022-12-07T12:40:37;4;4;
38451;PMS5003;24231;52.514;13.438;2022-12-07T12:43:26;5;5;
38451;PMS5003;24231;52.514;13.438;2022-12-07T12:48:27;6;6;
38451;PMS5003;24231;52.514;13.438;2022-12-07T12:51:35;5;5;
38451;PMS5003;24231;52.514;13.438;2022-12-07T12:54:03;5;3;
38451;PMS5003;24231;52.514;13.438;2022-12-07T12:56:35;5;4;
38451;PMS5003;24231;52.514;13.438;2022-12-07T12:59:26;5;4;
38451;PMS5003;24231;52.514;13.438;2022-12-07T13:01:56;3;3;
38451;PMS5003;24231;52.514;13.438;2022-12-07T13:04:50;8;8;
38451;PMS5003;24231;52.514;13.438;2022-12-07T13:08:25;10;8;
38451;PMS5003;24231;52.514;13.438;2022-12-07T13:10:53;3;3;
38451;PMS5003;24231;52.514;13.438;2022-12-07T13:13:36;4;4;
38451;PMS5003;24231;52.514;13.438;2022-12-07T13:16:37;3;3;
38451;PMS5003;24231;52.514;13.438;2022-12-07T13:20:39;7;6;
38451;PMS5003;24231;52.514;13.438;2022-12-07T13:23:09;4;4;
38451;PMS5003;24231;52.514;13.438;2022-12-07T13:25:37;5;5;
38451;PMS5003;24231;52.514;13.438;2022-12-07T13:28:16;3;3;
38451;PMS5003;24231;52.514;13.438;2022-12-07T13:30:47;6;4;
38451;PMS5003;24231;52.514;13.438;2022-12-07T13:33:27;4;2;
38451;PMS5003;24231;52.514;13.438;2022-12-07T13:35:55;6;5;
38451;PMS5003;24231;52.514;13.438;2022-12-07T13:38:25;3;3;
38451;PMS5003;24231;52.514;13.438;2022-12-07T13:41:13;5;3;
38451;PMS5003;24231;52.514;13.438;2022-12-07T13:43:44;5;4;
38451;PMS5003;24231;52.514;13.438;2022-12-07T13:46:15;3;3;
38451;PMS5003;24231;52.514;13.438;2022-12-07T13:48:46;7;3;
38451;PMS5003;24231;52.514;13.438;2022-12-07T13:51:19;4;3;
38451;PMS5003;24231;52.514;13.438;2022-12-07T13:53:48;4;3;
38451;PMS5003;24231;52.514;13.438;2022-12-07T13:56:17;4;4;
38451;PMS5003;24231;52.514;13.438;2022-12-07T13:58:44;5;4;
38451;PMS5003;24231;52.514;13.438;2022-12-07T14:01:12;2;2;
38451;PMS5003;24231;52.514;13.438;2022-12-07T14:03:39;4;3;
38451;PMS5003;24231;52.514;13.438;2022-12-07T14:06:22;2;2;
38451;PMS5003;24231;52.514;13.438;2022-12-07T14:08:51;3;3;
38451;PMS5003;24231;52.514;13.438;2022-12-07T14:11:34;4;4;
38451;PMS5003;24231;52.514;13.438;2022-12-07T14:14:02;5;4;
38451;PMS5003;24231;52.514;13.438;2022-12-07T14:16:32;6;4;
38451;PMS5003;24231;52.514;13.438;2022-12-07T14:19:01;4;4;
38451;PMS5003;24231;52.514;13.438;2022-12-07T14:21:31;14;11;
38451;PMS5003;24231;52.514;13.438;2022-12-07T14:24:08;5;5;
38451;PMS5003;24231;52.514;13.438;2022-12-07T14:26:37;3;3;
38451;PMS5003;24231;52.514;13.438;2022-12-07T14:29:27;5;3;
38451;PMS5003;24231;52.514;13.438;2022-12-07T14:31:58;2;2;
38451;PMS5003;24231;52.514;13.438;2022-12-07T14:34:40;4;4;
38451;PMS5003;24231;52.514;13.438;2022-12-07T14:37:09;6;4;
38451;PMS5003;24231;52.514;13.438;2022-12-07T14:39:36;3;3;
38451;PMS5003;24231;52.514;13.438;2022-12-07T14:42:04;4;3;
38451;PMS5003;24231;52.514;13.438;2022-12-07T14:44:31;4;4;
38451;PMS5003;24231;52.514;13.438;2022-12-07T14:46:59;4;4;
38451;PMS5003;24231;52.514;13.438;2022-12-07T14:49:26;3;3;
38451;PMS5003;24231;52.514;13.438;2022-12-07T14:51:54;3;3;
38451;PMS5003;24231;52.514;13.438;2022-12-07T14:54:21;4;3;
38451;PMS5003;24231;52.514;13.438;2022-12-07T14:56:56;7;5;
38451;PMS5003;24231;52.514;13.438;2022-12-07T14:59:24;5;3;
38451;PMS5003;24231;52.514;13.438;2022-12-07T15:01:51;6;5;
38451;PMS5003;24231;52.514;13.438;2022-12-07T15:04:19;8;4;
38451;PMS5003;24231;52.514;13.438;2022-12-07T15:06:54;5;4;
38451;PMS5003;24231;52.514;13.438;2022-12-07T15:09:22;4;3;
38451;PMS5003;24231;52.514;13.438;2022-12-07T15:11:49;5;3;
38451;PMS5003;24231;52.514;13.438;2022-12-07T15:14:17;5;2;
38451;PMS5003;24231;52.514;13.438;2022-12-07T15:16:44;5;3;
38451;PMS5003;24231;52.514;13.438;2022-12-07T15:19:13;3;3;
38451;PMS5003;24231;52.514;13.438;2022-12-07T15:21:42;3;3;
38451;PMS5003;24231;52.514;13.438;2022-12-07T15:24:11;5;5;
38451;PMS5003;24231;52.514;13.438;2022-12-07T15:26:39;3;3;
38451;PMS5003;24231;52.514;13.438;2022-12-07T15:29:07;3;3;
38451;PMS5003;24231;52.514;13.438;2022-12-07T15:31:36;5;4;
38451;PMS5003;24231;52.514;13.438;2022-12-07T15:34:04;1;1;
38451;PMS5003;24231;52.514;13.438;2022-12-07T15:36:32;2;2;
38451;PMS5003;24231;52.514;13.438;2022-12-07T15:39:00;3;3;
38451;PMS5003;24231;52.514;13.438;2022-12-07T15:41:27;3;2;
38451;PMS5003;24231;52.514;13.438;2022-12-07T15:43:55;3;3;
38451;PMS5003;24231;52.514;13.438;2022-12-07T15:46:22;5;5;
38451;PMS5003;24231;52.514;13.438;2022-12-07T15:48:49;8;5;
38451;PMS5003;24231;52.514;13.438;2022-12-07T15:51:17;2;2;
38451;PMS5003;24231;52.514;13.438;2022-12-07T15:53:44;4;4;
38451;PMS5003;24231;52.514;13.438;2022-12-07T15:56:12;4;4;
38451;PMS5003;24231;52.514;13.438;2022-12-07T15:58:39;8;6;
38451;PMS5003;24231;52.514;13.438;2022-12-07T16:01:09;9;7;
38451;PMS5003;24231;52.514;13.438;2022-12-07T16:03:37;3;3;
38451;PMS5003;24231;52.514;13.438;2022-12-07T16:06:05;4;4;
38451;PMS5003;24231;52.514;13.438;2022-12-07T16:08:32;6;6;
38451;PMS5003;24231;52.514;13.438;2022-12-07T16:11:00;5;5;
38451;PMS5003;24231;52.514;13.438;2022-12-07T16:13:31;5;4;
38451;PMS5003;24231;52.514;13.438;2022-12-07T16:16:01;8;8;
38451;PMS5003;24231;52.514;13.438;2022-12-07T16:18:29;7;5;
38451;PMS5003;24231;52.514;13.438;2022-12-07T16:20:56;5;4;
38451;PMS5003;24231;52.514;13.438;2022-12-07T16:23:24;4;4;
38451;PMS5003;24231;52.514;13.438;2022-12-07T16:25:51;4;4;
38451;PMS5003;24231;52.514;13.438;2022-12-07T16:28:19;3;3;
38451;PMS5003;24231;52.514;13.438;2022-12-07T16:30:46;4;3;
38451;PMS5003;24231;52.514;13.438;2022-12-07T16:33:14;3;3;
38451;PMS5003;24231;52.514;13.438;2022-12-07T16:35:41;4;4;
38451;PMS5003;24231;52.514;13.438;2022-12-07T16:38:08;3;2;
38451;PMS5003;24231;52.514;13.438;2022-12-07T16:40:36;4;4;
38451;PMS5003;24231;52.514;13.438;2022-12-07T16:43:03;6;6;
38451;PMS5003;24231;52.514;13.438;2022-12-07T16:45:30;15;8;
38451;PMS5003;24231;52.514;13.438;2022-12-07T16:47:57;5;3;
38451;PMS5003;24231;52.514;13.438;2022-12-07T16:50:25;5;5;
38451;PMS5003;24231;52.514;13.438;2022-12-07T16:52:52;2;2;